Time;durP1;ratioP1;P1;durP2;ratioP2;P2;SDS_P1;SDS_P2;PMS_P1;PMS_P2;Temp;Humidity;BMP_temperature;BMP_pressure;BME280_temperature;BME280_humidity;BME280_pressure;Samples;Min_cycle;Max_cycle;Signal;HPM_P1;HPM_P2
2023/07/22 00:01:09;;;;;;;6.22;2.90;;;;;;;20.71;42.10;101216.75;5052074;28;20025;-61
2023/07/22 00:03:34;;;;;;;7.60;2.28;;;;;;;20.69;41.63;101216.06;5035129;28;20365;-60
2023/07/22 00:06:06;;;;;;;9.65;3.95;;;;;;;20.66;42.65;101214.56;5051917;28;20029;-61
2023/07/22 00:08:32;;;;;;;4.47;2.80;;;;;;;20.61;41.89;101199.81;5051874;28;20041;-61
2023/07/22 00:10:58;;;;;;;4.30;2.58;;;;;;;20.57;42.23;101203.97;5034985;28;20029;-62
2023/07/22 00:13:26;;;;;;;4.25;2.65;;;;;;;20.61;41.63;101205.25;5052073;28;20539;-61
2023/07/22 00:15:53;;;;;;;4.40;2.70;;;;;;;20.58;42.36;101217.38;5053428;28;20033;-61
2023/07/22 00:18:18;;;;;;;7.80;3.30;;;;;;;20.58;41.81;101209.22;5052790;28;20124;-60
2023/07/22 00:20:43;;;;;;;5.75;3.45;;;;;;;20.58;41.93;101205.63;5052649;28;20463;-61
2023/07/22 00:23:10;;;;;;;6.05;3.78;;;;;;;20.52;42.18;101203.69;5052867;28;20033;-61
2023/07/22 00:25:36;;;;;;;5.07;2.63;;;;;;;20.58;42.44;101208.34;5052894;28;20481;-61
2023/07/22 00:28:01;;;;;;;4.85;2.42;;;;;;;20.56;42.73;101208.56;5034812;28;20055;-61
2023/07/22 00:30:28;;;;;;;4.55;2.92;;;;;;;20.57;42.30;101209.41;5055251;28;20021;-62
2023/07/22 00:32:53;;;;;;;6.60;3.33;;;;;;;20.58;42.59;101200.19;5057062;28;20116;-62
2023/07/22 00:35:19;;;;;;;9.85;3.42;;;;;;;20.58;41.66;101205.63;5055408;28;20553;-61
2023/07/22 00:37:44;;;;;;;6.53;2.58;;;;;;;20.58;42.86;101206.47;5055326;28;20040;-61
2023/07/22 00:40:11;;;;;;;4.88;3.35;;;;;;;20.56;42.24;101197.66;5056603;28;20120;-61
2023/07/22 00:42:38;;;;;;;5.57;2.85;;;;;;;20.60;42.38;101211.75;5056784;28;20376;-62
2023/07/22 00:45:03;;;;;;;6.97;3.65;;;;;;;20.60;42.49;101209.03;5038931;28;20029;-62
2023/07/22 00:47:29;;;;;;;5.20;3.45;;;;;;;20.61;42.92;101208.00;5038639;28;20508;-61
2023/07/22 00:49:55;;;;;;;5.43;3.00;;;;;;;20.61;42.04;101210.72;5056541;28;20029;-62
2023/07/22 00:52:21;;;;;;;10.20;3.38;;;;;;;20.59;42.54;101207.34;5045175;28;20033;-61
2023/07/22 00:54:46;;;;;;;6.95;3.63;;;;;;;20.61;42.58;101199.81;5035229;28;20515;-61
2023/07/22 00:57:12;;;;;;;5.65;3.08;;;;;;;20.63;42.44;101203.22;5042397;28;20063;-62
2023/07/22 00:59:39;;;;;;;6.22;3.55;;;;;;;20.65;42.54;101204.72;5055113;28;20035;-61
2023/07/22 01:02:04;;;;;;;8.45;3.45;;;;;;;20.67;42.54;101196.38;5021869;28;20037;-61
2023/07/22 01:04:33;;;;;;;5.20;3.38;;;;;;;20.72;42.67;101196.66;5037512;28;20083;-61
2023/07/22 01:06:59;;;;;;;9.18;3.35;;;;;;;20.76;42.36;101197.97;5042313;28;20032;-62
2023/07/22 01:09:24;;;;;;;8.07;4.25;;;;;;;20.79;42.73;101193.00;5036320;28;20037;-61
2023/07/22 01:11:50;;;;;;;6.13;3.75;;;;;;;20.82;42.41;101187.19;5044781;28;20036;-62
2023/07/22 01:14:15;;;;;;;5.90;3.38;;;;;;;20.86;42.86;101188.50;5058826;28;20032;-61
2023/07/22 01:16:40;;;;;;;7.80;3.08;;;;;;;20.85;42.90;101178.63;5060011;28;20079;-62
2023/07/22 01:19:08;;;;;;;7.53;4.15;;;;;;;20.93;43.34;101194.06;5059011;28;20052;-61
2023/07/22 01:21:34;;;;;;;19.88;3.63;;;;;;;20.96;43.06;101182.78;5056147;28;20494;-61
2023/07/22 01:23:59;;;;;;;6.70;3.28;;;;;;;20.98;43.45;101168.97;5035080;28;20048;-60
2023/07/22 01:26:26;;;;;;;9.18;4.07;;;;;;;21.01;43.07;101169.44;5047319;28;20412;-61
2023/07/22 01:29:02;;;;;;;7.07;3.38;;;;;;;21.03;43.41;101167.38;5056109;28;20036;-61
2023/07/22 01:31:27;;;;;;;8.80;5.35;;;;;;;21.06;42.95;101167.00;5038108;28;20036;-61
2023/07/22 01:33:52;;;;;;;9.00;3.92;;;;;;;21.07;42.64;101167.84;5054581;28;20033;-61
2023/07/22 01:36:18;;;;;;;7.95;4.43;;;;;;;21.07;43.58;101168.72;5055737;28;20033;-60
2023/07/22 01:38:43;;;;;;;10.20;4.57;;;;;;;21.12;43.13;101166.28;5037489;28;20051;-61
2023/07/22 01:41:08;;;;;;;8.82;4.20;;;;;;;21.14;43.18;101171.50;5054762;28;20121;-61
2023/07/22 01:43:34;;;;;;;8.75;4.45;;;;;;;21.13;43.45;101164.41;5054338;28;20132;-61
2023/07/22 01:45:59;;;;;;;9.50;4.65;;;;;;;21.16;43.44;101170.28;5055553;28;20052;-61
2023/07/22 01:48:24;;;;;;;7.57;4.32;;;;;;;21.15;42.72;101170.50;5054466;28;20086;-61
2023/07/22 01:50:50;;;;;;;11.10;4.78;;;;;;;21.14;43.49;101153.28;5037625;28;20120;-61
2023/07/22 01:53:15;;;;;;;9.98;5.13;;;;;;;21.15;43.45;101162.31;5054263;28;20036;-61
2023/07/22 01:55:40;;;;;;;8.90;4.65;;;;;;;21.16;43.58;101162.13;5054244;28;20029;-61
2023/07/22 01:58:06;;;;;;;7.45;4.13;;;;;;;21.17;43.73;101166.53;5053859;28;20447;-61
2023/07/22 02:00:31;;;;;;;9.50;4.40;;;;;;;21.15;43.55;101171.34;5055287;28;20044;-60
2023/07/22 02:02:57;;;;;;;9.88;4.18;;;;;;;21.17;43.19;101172.00;5054060;28;20466;-60
2023/07/22 02:05:23;;;;;;;12.48;4.20;;;;;;;21.18;43.37;101181.88;5055256;28;20383;-61
2023/07/22 02:07:48;;;;;;;10.18;4.05;;;;;;;21.16;43.15;101172.19;5053941;28;20025;-60
2023/07/22 02:10:13;;;;;;;7.68;4.25;;;;;;;21.12;43.53;101171.72;5053781;28;20036;-61
2023/07/22 02:12:39;;;;;;;13.73;4.95;;;;;;;21.09;43.49;101171.25;5053965;28;20518;-61
2023/07/22 02:15:05;;;;;;;15.13;5.00;;;;;;;21.06;43.11;101167.00;5037195;28;20035;-61
2023/07/22 02:17:30;;;;;;;7.53;4.32;;;;;;;21.05;43.68;101167.19;5037020;28;20036;-60
2023/07/22 02:19:56;;;;;;;8.85;4.63;;;;;;;21.04;43.60;101168.22;5054980;28;20120;-62
2023/07/22 02:22:21;;;;;;;7.72;4.35;;;;;;;21.02;43.29;101160.22;5053659;28;20037;-60
2023/07/22 02:24:47;;;;;;;11.90;4.28;;;;;;;21.02;43.87;101160.22;5047044;28;20029;-61
2023/07/22 02:27:13;;;;;;;8.60;4.30;;;;;;;21.02;43.75;101159.38;5037322;28;20029;-61
2023/07/22 02:29:39;;;;;;;10.60;4.18;;;;;;;21.04;43.41;101152.72;5053485;28;20392;-61
2023/07/22 02:32:06;;;;;;;7.82;4.72;;;;;;;21.08;43.49;101150.50;5053449;28;20033;-61
2023/07/22 02:34:31;;;;;;;8.48;4.72;;;;;;;21.09;43.74;101152.16;5054850;28;20115;-61
2023/07/22 02:36:56;;;;;;;8.48;4.45;;;;;;;21.13;43.38;101153.50;5053331;28;20506;-62
2023/07/22 02:39:22;;;;;;;11.13;4.07;;;;;;;21.16;43.60;101151.22;5053241;28;20040;-61
2023/07/22 02:41:47;;;;;;;8.10;4.82;;;;;;;21.19;43.32;101150.03;5053289;28;20041;-61
2023/07/22 02:44:13;;;;;;;6.63;3.83;;;;;;;21.21;43.63;101146.06;5054992;28;20067;-61
2023/07/22 02:46:38;;;;;;;6.82;4.03;;;;;;;21.26;43.83;101150.94;5053156;28;20029;-61
2023/07/22 02:49:03;;;;;;;9.23;4.25;;;;;;;21.30;43.55;101153.06;5053166;28;20112;-61
2023/07/22 02:51:29;;;;;;;7.88;4.22;;;;;;;21.32;43.48;101151.03;5052570;28;20031;-60
2023/07/22 02:53:54;;;;;;;9.40;5.18;;;;;;;21.33;43.37;101152.69;5048726;28;20192;-62
2023/07/22 02:56:20;;;;;;;9.00;4.10;;;;;;;21.35;43.88;101150.66;5039712;28;20037;-61
2023/07/22 02:58:45;;;;;;;5.82;3.60;;;;;;;21.38;43.48;101155.69;5034312;28;20116;-61
2023/07/22 03:01:11;;;;;;;6.65;3.88;;;;;;;21.39;43.68;101161.97;5043247;28;20040;-60
2023/07/22 03:03:37;;;;;;;12.50;3.97;;;;;;;21.42;42.97;101162.47;5045447;28;20030;-62
2023/07/22 03:06:03;;;;;;;7.05;3.53;;;;;;;21.43;43.77;101158.72;5016336;28;20033;-61
2023/07/22 03:08:28;;;;;;;16.38;4.75;;;;;;;21.46;43.28;101163.78;5039407;28;20033;-61
2023/07/22 03:10:54;;;;;;;8.27;4.07;;;;;;;21.47;43.69;101154.53;5049074;28;20120;-62
2023/07/22 03:13:19;;;;;;;7.47;4.03;;;;;;;21.50;43.92;101163.41;5032826;28;20050;-61
2023/07/22 03:15:44;;;;;;;6.75;3.83;;;;;;;21.50;43.07;101168.84;5032684;28;20056;-61
2023/07/22 03:18:11;;;;;;;7.60;4.53;;;;;;;21.50;43.26;101160.66;5047306;28;20079;-61
2023/07/22 03:20:37;;;;;;;6.68;3.85;;;;;;;21.47;42.97;101159.13;5020748;28;20036;-61
2023/07/22 03:23:03;;;;;;;9.52;4.10;;;;;;;21.47;43.47;101165.44;5032605;28;20100;-61
2023/07/22 03:25:28;;;;;;;7.15;3.97;;;;;;;21.50;43.69;101174.31;5033765;28;20521;-61
2023/07/22 03:27:54;;;;;;;7.15;4.03;;;;;;;21.51;43.21;101176.81;5033897;28;20033;-61
2023/07/22 03:30:21;;;;;;;9.35;4.38;;;;;;;21.53;43.46;101168.44;5032388;28;20528;-61
2023/07/22 03:32:47;;;;;;;7.32;4.35;;;;;;;21.53;43.05;101169.28;5033631;28;20156;-61
2023/07/22 03:35:13;;;;;;;11.10;3.70;;;;;;;21.55;43.31;101171.84;5032265;28;20075;-61
2023/07/22 03:37:40;;;;;;;7.95;3.97;;;;;;;21.54;43.12;101170.13;5032080;28;20030;-63
2023/07/22 03:40:19;;;;;;;6.28;3.55;;;;;;;21.50;42.71;101160.66;5032039;28;20120;-60
2023/07/22 03:42:44;;;;;;;10.10;4.45;;;;;;;21.47;42.51;101168.16;5032423;28;20037;-61
2023/07/22 03:45:10;;;;;;;11.43;4.13;;;;;;;21.46;43.03;101171.94;5048948;28;20396;-62
2023/07/22 03:47:35;;;;;;;9.30;3.92;;;;;;;21.45;43.31;101175.69;5037120;28;20029;-60
2023/07/22 03:50:01;;;;;;;8.50;4.40;;;;;;;21.42;42.94;101167.91;5053470;28;20120;-62
2023/07/22 03:52:26;;;;;;;8.30;4.10;;;;;;;21.42;43.40;101167.91;5052225;28;20029;-61
2023/07/22 03:54:52;;;;;;;8.13;5.22;;;;;;;21.40;42.99;101164.53;5052104;28;20035;-61
2023/07/22 03:57:17;;;;;;;6.88;3.80;;;;;;;21.36;42.58;101156.91;5049288;28;20072;-61
2023/07/22 03:59:42;;;;;;;5.82;3.28;;;;;;;21.35;42.64;101166.16;5032096;28;20528;-61
2023/07/22 04:02:08;;;;;;;6.43;3.80;;;;;;;21.35;42.59;101167.00;5015279;28;20041;-61
2023/07/22 04:04:33;;;;;;;6.55;3.88;;;;;;;21.37;42.52;101175.81;5032960;28;20397;-62
2023/07/22 04:06:58;;;;;;;9.15;3.85;;;;;;;21.38;43.26;101172.03;5033102;28;20029;-61
2023/07/22 04:09:27;;;;;;;11.15;4.88;;;;;;;21.39;42.50;101172.88;5033157;28;20064;-61
2023/07/22 04:11:52;;;;;;;14.68;3.97;;;;;;;21.40;42.79;101170.00;5031857;28;20033;-60
2023/07/22 04:14:17;;;;;;;8.40;3.97;;;;;;;21.42;43.33;101173.34;5033024;28;20389;-61
2023/07/22 04:16:43;;;;;;;9.57;3.95;;;;;;;21.43;42.19;101164.16;5036636;28;20108;-60
2023/07/22 04:19:09;;;;;;;7.07;4.28;;;;;;;21.44;43.23;101164.97;5052893;28;20098;-61
2023/07/22 04:21:34;;;;;;;7.72;4.20;;;;;;;21.42;42.57;101159.72;5053090;28;20504;-61
2023/07/22 04:24:00;;;;;;;6.63;3.63;;;;;;;21.45;42.61;101167.53;5050740;28;20553;-61
2023/07/22 04:26:25;;;;;;;8.60;4.15;;;;;;;21.45;42.51;101170.25;5051552;28;20072;-61
2023/07/22 04:28:50;;;;;;;7.40;4.03;;;;;;;21.41;42.43;101168.94;5051762;28;20037;-60
2023/07/22 04:31:16;;;;;;;7.70;4.43;;;;;;;21.40;42.88;101164.53;5052587;28;20494;-61
2023/07/22 04:33:42;;;;;;;11.02;4.15;;;;;;;21.39;42.68;101162.84;5051492;28;20036;-61
2023/07/22 04:36:07;;;;;;;10.23;4.13;;;;;;;21.38;42.46;101165.75;5051356;28;20036;-61
2023/07/22 04:38:33;;;;;;;12.35;4.40;;;;;;;21.38;42.79;101166.59;5052797;28;20179;-61
2023/07/22 04:41:02;;;;;;;9.50;4.43;;;;;;;21.37;42.37;101170.38;5051087;28;20057;-61
2023/07/22 04:43:27;;;;;;;7.75;4.40;;;;;;;21.36;42.88;101165.94;5051503;28;20036;-60
2023/07/22 04:45:52;;;;;;;6.93;4.32;;;;;;;21.41;42.93;101163.47;5052662;28;20032;-61
2023/07/22 04:48:20;;;;;;;12.80;5.47;;;;;;;21.45;42.29;101156.63;5051364;28;20025;-61
2023/07/22 04:50:45;;;;;;;9.07;5.22;;;;;;;21.48;42.74;101158.97;5052447;28;20037;-61
2023/07/22 04:53:14;;;;;;;9.05;4.05;;;;;;;21.51;42.72;101156.88;5034589;28;20039;-61
2023/07/22 04:55:40;;;;;;;13.75;4.30;;;;;;;21.57;42.44;101159.69;5051227;28;20092;-60
2023/07/22 04:58:05;;;;;;;7.18;4.13;;;;;;;21.64;42.53;101167.94;5034416;28;20491;-61
2023/07/22 05:00:31;;;;;;;9.70;4.72;;;;;;;21.72;42.49;101163.22;5051303;28;20037;-61
2023/07/22 05:02:57;;;;;;;10.82;4.65;;;;;;;21.83;42.55;101159.16;5051251;28;20087;-61
2023/07/22 05:05:23;;;;;;;8.15;4.25;;;;;;;21.84;42.25;101155.34;5052318;28;20079;-62
2023/07/22 05:07:52;;;;;;;10.02;3.65;;;;;;;21.88;42.46;101151.25;5052434;28;20025;-61
2023/07/22 05:10:19;;;;;;;10.40;4.55;;;;;;;21.95;43.05;101158.44;5051222;28;20044;-60
2023/07/22 05:12:45;;;;;;;9.10;4.25;;;;;;;22.00;42.57;101153.25;5050357;28;20061;-60
2023/07/22 05:15:11;;;;;;;10.00;4.78;;;;;;;22.04;41.95;101156.44;5050659;28;20037;-62
2023/07/22 05:17:37;;;;;;;12.05;5.03;;;;;;;22.11;42.77;101162.78;5052808;28;20071;-61
2023/07/22 05:20:06;;;;;;;9.15;4.72;;;;;;;22.17;41.79;101163.88;5056430;28;20477;-61
2023/07/22 05:22:31;;;;;;;10.38;4.68;;;;;;;22.26;41.91;101160.84;5055199;28;20020;-62
2023/07/22 05:24:57;;;;;;;8.73;4.95;;;;;;;22.32;41.74;101159.19;5054766;28;20021;-61
2023/07/22 05:27:22;;;;;;;10.52;4.78;;;;;;;22.38;41.95;101170.19;5056087;28;20499;-61
2023/07/22 05:29:48;;;;;;;9.63;4.50;;;;;;;22.45;42.71;101167.50;5054606;28;20519;-62
2023/07/22 05:32:13;;;;;;;8.95;4.60;;;;;;;22.49;42.27;101158.72;5055832;28;20020;-61
2023/07/22 05:34:39;;;;;;;9.48;5.55;;;;;;;22.60;41.71;101168.25;5056182;28;20431;-61
2023/07/22 05:37:04;;;;;;;9.07;5.28;;;;;;;22.71;42.64;101166.88;5055926;28;20029;-61
2023/07/22 05:39:30;;;;;;;9.55;4.55;;;;;;;22.81;41.90;101161.91;5037986;28;20021;-61
2023/07/22 05:41:56;;;;;;;16.10;4.75;;;;;;;22.90;42.56;101164.28;5055398;28;20470;-62
2023/07/22 05:44:22;;;;;;;8.52;4.63;;;;;;;22.95;42.15;101172.69;5054683;28;20082;-62
2023/07/22 05:46:49;;;;;;;8.32;4.90;;;;;;;23.00;41.19;101172.13;5054717;28;20029;-61
2023/07/22 05:49:14;;;;;;;12.63;4.68;;;;;;;23.03;41.78;101168.97;5056538;28;20024;-61
2023/07/22 05:51:40;;;;;;;8.52;4.57;;;;;;;23.06;41.59;101168.59;5054318;28;20103;-62
2023/07/22 05:54:05;;;;;;;7.38;4.63;;;;;;;23.08;41.87;101174.69;5055753;28;20029;-61
2023/07/22 05:56:31;;;;;;;10.13;4.78;;;;;;;23.10;41.36;101170.69;5053920;28;20029;-61
2023/07/22 05:58:56;;;;;;;10.45;5.22;;;;;;;23.11;41.34;101168.81;5048389;28;20025;-63
2023/07/22 06:01:23;;;;;;;11.00;5.40;;;;;;;23.11;41.72;101166.94;5054180;28;20495;-61
2023/07/22 06:03:48;;;;;;;14.10;5.20;;;;;;;23.10;41.43;101169.84;5054228;28;20025;-62
2023/07/22 06:06:14;;;;;;;13.77;6.22;;;;;;;23.14;41.64;101171.16;5055388;28;20454;-62
2023/07/22 06:08:39;;;;;;;10.45;5.22;;;;;;;23.16;41.23;101179.97;5054517;28;20037;-62
2023/07/22 06:11:06;;;;;;;8.57;4.57;;;;;;;23.18;41.26;101175.13;5037718;28;20114;-62
2023/07/22 06:13:31;;;;;;;8.00;4.35;;;;;;;23.15;42.12;101176.41;5054536;28;20044;-61
2023/07/22 06:15:56;;;;;;;7.45;4.28;;;;;;;23.15;41.08;101175.53;5054162;28;20025;-61
2023/07/22 06:18:23;;;;;;;11.77;4.65;;;;;;;23.17;41.37;101176.22;5054397;28;20504;-61
2023/07/22 06:20:49;;;;;;;8.23;4.97;;;;;;;23.16;42.13;101179.97;5059205;28;20086;-62
2023/07/22 06:23:14;;;;;;;9.88;5.18;;;;;;;23.21;42.17;101182.94;5058336;28;20112;-62
2023/07/22 06:25:40;;;;;;;8.30;4.20;;;;;;;23.27;41.91;101175.81;5057425;28;20037;-61
2023/07/22 06:28:06;;;;;;;15.27;5.68;;;;;;;23.35;41.66;101176.47;5058540;28;20102;-62
2023/07/22 06:30:32;;;;;;;10.07;4.68;;;;;;;23.45;42.06;101185.16;5059677;28;20032;-61
2023/07/22 06:32:58;;;;;;;8.93;4.47;;;;;;;23.51;41.36;101186.25;5059850;28;20384;-61
2023/07/22 06:35:23;;;;;;;7.55;4.30;;;;;;;23.60;41.63;101188.59;5060395;28;20120;-61
2023/07/22 06:37:48;;;;;;;8.50;4.68;;;;;;;23.69;41.97;101186.53;5063331;28;20029;-62
2023/07/22 06:40:14;;;;;;;9.32;4.97;;;;;;;23.88;40.92;101184.88;5062164;28;20026;-62
2023/07/22 06:42:39;;;;;;;10.80;5.50;;;;;;;23.88;41.71;101179.41;5060207;28;20377;-61
2023/07/22 06:45:05;;;;;;;11.00;4.72;;;;;;;23.96;41.60;101188.28;5041866;28;20044;-62
2023/07/22 06:47:30;;;;;;;9.30;5.43;;;;;;;24.12;41.43;101182.44;5056116;28;20025;-62
2023/07/22 06:49:56;;;;;;;9.02;4.93;;;;;;;24.54;40.87;101183.91;5036566;28;20032;-62
2023/07/22 06:52:21;;;;;;;9.57;5.15;;;;;;;24.90;40.22;101172.53;5053085;28;20033;-62
2023/07/22 06:54:47;;;;;;;12.52;4.70;;;;;;;25.31;40.17;101172.19;5052714;28;20467;-62
2023/07/22 06:57:12;;;;;;;14.10;4.57;;;;;;;25.57;39.87;101171.28;5052731;28;20119;-62
2023/07/22 06:59:37;;;;;;;9.70;4.50;;;;;;;25.65;39.86;101158.13;5052694;28;20029;-62
2023/07/22 07:02:04;;;;;;;8.85;4.80;;;;;;;26.01;39.50;101158.34;5052755;28;20037;-62
2023/07/22 07:04:30;;;;;;;8.50;4.85;;;;;;;26.44;39.50;101157.56;5054154;28;20116;-62
2023/07/22 07:06:55;;;;;;;8.73;4.93;;;;;;;26.70;39.49;101159.25;5054002;28;20171;-62
2023/07/22 07:09:21;;;;;;;12.93;4.88;;;;;;;26.87;38.87;101154.88;5035980;28;20061;-62
2023/07/22 07:11:46;;;;;;;13.80;5.85;;;;;;;26.89;38.88;101155.47;5051258;28;20064;-61
2023/07/22 07:14:12;;;;;;;9.50;4.45;;;;;;;26.84;39.03;101158.06;5052600;28;20489;-61
2023/07/22 07:16:38;;;;;;;9.32;4.60;;;;;;;26.81;39.51;101155.78;5052551;28;20037;-61
2023/07/22 07:19:03;;;;;;;11.57;5.30;;;;;;;26.87;39.02;101157.63;5035815;28;20432;-62
2023/07/22 07:21:28;;;;;;;6.90;4.25;;;;;;;26.90;38.86;101158.00;5035743;28;20029;-62
2023/07/22 07:23:54;;;;;;;9.35;5.05;;;;;;;26.92;38.83;101161.38;5035973;28;20500;-62
2023/07/22 07:26:21;;;;;;;10.00;4.88;;;;;;;26.84;38.86;101161.66;5035812;28;20497;-62
2023/07/22 07:28:47;;;;;;;7.45;4.50;;;;;;;26.89;39.48;101160.97;5052350;28;20451;-62
2023/07/22 07:31:13;;;;;;;8.90;5.38;;;;;;;26.88;38.75;101151.91;5035830;28;20523;-62
2023/07/22 07:33:38;;;;;;;9.05;4.10;;;;;;;27.00;39.07;101152.81;5035772;28;20033;-62
2023/07/22 07:36:04;;;;;;;10.32;5.47;;;;;;;27.13;39.08;101160.94;5046192;28;20040;-62
2023/07/22 07:38:30;;;;;;;7.57;4.60;;;;;;;27.48;38.61;101149.28;5033105;28;20032;-62
2023/07/22 07:40:56;;;;;;;9.13;3.88;;;;;;;27.61;38.67;101160.94;5011395;28;20236;-62
2023/07/22 07:43:22;;;;;;;8.43;4.40;;;;;;;27.59;39.32;101163.09;5052091;28;20069;-63
2023/07/22 07:45:47;;;;;;;8.10;4.07;;;;;;;27.59;38.72;101163.09;5053435;28;20124;-62
2023/07/22 07:48:13;;;;;;;10.45;4.47;;;;;;;27.62;39.25;101164.56;5052124;28;20036;-61
2023/07/22 07:50:38;;;;;;;12.10;4.22;;;;;;;27.71;38.32;101155.75;5035397;28;20033;-61
2023/07/22 07:53:03;;;;;;;9.00;5.28;;;;;;;27.88;39.16;101166.09;5052968;28;20037;-62
2023/07/22 07:55:29;;;;;;;6.47;3.55;;;;;;;27.77;38.07;101158.63;5033319;28;20037;-61
2023/07/22 07:57:54;;;;;;;9.10;4.30;;;;;;;27.68;39.17;101163.63;5034011;28;20137;-61
2023/07/22 08:00:21;;;;;;;7.53;4.00;;;;;;;27.53;39.26;101165.94;5053125;28;20032;-61
2023/07/22 08:02:46;;;;;;;5.65;3.65;;;;;;;27.55;38.52;101156.41;5019023;28;20037;-61
2023/07/22 08:05:12;;;;;;;7.28;3.65;;;;;;;27.65;37.98;101164.09;5036160;28;20090;-61
2023/07/22 08:07:38;;;;;;;8.13;3.28;;;;;;;27.72;38.26;101167.59;5035139;28;20040;-62
2023/07/22 08:10:04;;;;;;;7.45;3.92;;;;;;;27.84;37.79;101159.38;5051596;28;20029;-62
2023/07/22 08:12:30;;;;;;;8.20;3.40;;;;;;;27.92;38.76;101162.63;5051641;28;20071;-62
2023/07/22 08:14:56;;;;;;;6.82;3.70;;;;;;;27.94;38.63;101159.66;5018428;28;20508;-63
2023/07/22 08:17:21;;;;;;;8.00;3.33;;;;;;;27.98;37.61;101167.19;5051486;28;20030;-62
2023/07/22 08:19:47;;;;;;;9.65;2.60;;;;;;;28.05;37.84;101168.00;5035100;28;20029;-62
2023/07/22 08:22:12;;;;;;;8.85;3.70;;;;;;;28.06;38.31;101169.66;5018673;28;20052;-62
2023/07/22 08:24:38;;;;;;;6.60;3.45;;;;;;;28.22;38.18;101174.50;5052735;28;20040;-65
2023/07/22 08:27:03;;;;;;;7.90;3.60;;;;;;;28.15;38.16;101159.13;5051279;28;20025;-64
2023/07/22 08:29:31;;;;;;;5.75;2.90;;;;;;;28.09;38.38;101163.66;5035119;28;20025;-62
2023/07/22 08:31:56;;;;;;;7.13;2.95;;;;;;;28.13;37.87;101166.81;5051520;28;20473;-63
2023/07/22 08:34:22;;;;;;;7.80;3.20;;;;;;;28.29;37.23;101169.72;5051254;28;20021;-63
2023/07/22 08:36:47;;;;;;;5.30;2.67;;;;;;;28.47;37.11;101160.50;5034745;28;20481;-62
2023/07/22 08:39:12;;;;;;;6.18;2.97;;;;;;;28.56;37.88;101169.28;5052442;28;20506;-62
2023/07/22 08:41:38;;;;;;;6.43;2.30;;;;;;;28.70;37.75;101162.47;5051276;28;20400;-62
2023/07/22 08:44:04;;;;;;;4.65;2.28;;;;;;;28.82;36.89;101166.03;5051043;28;20049;-62
2023/07/22 08:46:33;;;;;;;6.75;2.28;;;;;;;28.99;37.40;101157.88;5051277;28;20017;-62
2023/07/22 08:49:00;;;;;;;8.68;2.53;;;;;;;29.12;37.04;101158.44;5051217;28;20040;-62
2023/07/22 08:51:28;;;;;;;4.97;2.05;;;;;;;29.19;36.37;101163.84;5052114;28;20020;-62
2023/07/22 08:53:56;;;;;;;4.05;2.50;;;;;;;29.28;36.33;101162.41;5055679;28;20017;-62
2023/07/22 08:56:23;;;;;;;7.38;2.95;;;;;;;29.31;36.13;101162.75;5059983;28;20530;-62
2023/07/22 08:58:49;;;;;;;3.75;1.70;;;;;;;29.28;36.12;101162.41;5058033;28;20053;-61
2023/07/22 09:01:15;;;;;;;5.07;1.88;;;;;;;29.10;36.29;101151.50;5057916;28;20504;-61
2023/07/22 09:03:40;;;;;;;4.97;1.98;;;;;;;29.02;36.72;101166.50;5059626;28;20041;-61
2023/07/22 09:06:06;;;;;;;7.75;2.15;;;;;;;28.97;35.97;101158.13;5039269;28;20040;-62
2023/07/22 09:08:31;;;;;;;4.50;1.90;;;;;;;28.97;36.72;101158.13;5055404;28;20090;-62
2023/07/22 09:10:57;;;;;;;2.67;1.33;;;;;;;29.00;36.29;101162.31;5055339;28;20033;-62
2023/07/22 09:13:23;;;;;;;7.57;1.90;;;;;;;28.99;36.50;101161.47;5038636;28;20071;-62
2023/07/22 09:15:49;;;;;;;4.45;1.90;;;;;;;28.91;35.80;101178.41;5055310;28;20063;-62
2023/07/22 09:18:15;;;;;;;2.88;1.40;;;;;;;28.80;36.79;101174.56;5038396;28;20040;-63
2023/07/22 09:20:42;;;;;;;5.60;2.30;;;;;;;28.73;36.59;101170.25;5056183;28;20076;-62
2023/07/22 09:23:08;;;;;;;6.47;1.35;;;;;;;28.75;35.81;101168.09;5054544;28;20094;-62
2023/07/22 09:25:33;;;;;;;2.42;1.27;;;;;;;28.72;36.48;101157.56;5054915;28;20079;-64
2023/07/22 09:28:02;;;;;;;2.83;1.45;;;;;;;28.74;36.19;101172.78;5055799;28;20112;-63
2023/07/22 09:30:34;;;;;;;1.58;0.98;;;;;;;28.68;35.98;101183.91;5037897;28;20535;-64
2023/07/22 09:33:02;;;;;;;3.50;2.00;;;;;;;28.69;36.02;101180.09;5038206;28;20112;-62
2023/07/22 09:35:49;;;;;;;4.38;1.20;;;;;;;28.75;36.03;101171.69;5037776;28;20037;-62
2023/07/22 09:38:22;;;;;;;2.35;1.48;;;;;;;28.86;36.11;101176.38;5055408;28;20146;-63
2023/07/22 09:40:48;;;;;;;4.40;1.58;;;;;;;28.91;35.53;101175.66;5055649;28;20112;-62
2023/07/22 09:43:13;;;;;;;2.42;1.45;;;;;;;28.94;35.99;101179.84;5054370;28;20076;-61
2023/07/22 09:45:38;;;;;;;4.78;1.42;;;;;;;28.98;35.18;101170.81;5037772;28;20037;-61
2023/07/22 09:48:05;;;;;;;3.08;1.35;;;;;;;29.08;35.89;101173.81;5054253;28;20048;-62
2023/07/22 09:50:31;;;;;;;3.83;1.55;;;;;;;29.23;35.04;101171.41;5055486;28;20127;-62
2023/07/22 09:53:03;;;;;;;3.78;1.73;;;;;;;29.39;35.16;101165.16;5054242;28;20037;-61
2023/07/22 09:55:30;;;;;;;5.85;1.30;;;;;;;29.55;34.84;101168.22;5038739;28;20561;-62
2023/07/22 09:58:03;;;;;;;2.58;1.73;;;;;;;29.75;34.88;101154.81;5054543;28;20453;-62
2023/07/22 10:00:31;;;;;;;2.25;1.60;;;;;;;29.99;35.06;101164.66;5038065;28;20467;-62
2023/07/22 10:02:57;;;;;;;4.10;2.00;;;;;;;30.23;34.53;101149.63;5056113;28;20043;-61
2023/07/22 10:05:24;;;;;;;1.92;1.35;;;;;;;30.61;33.84;101145.28;5055115;28;20033;-62
2023/07/22 10:07:51;;;;;;;4.90;1.98;;;;;;;31.13;33.40;101139.13;5055290;28;20120;-62
2023/07/22 10:10:19;;;;;;;2.70;1.58;;;;;;;31.73;32.93;101148.47;5054808;28;20063;-62
2023/07/22 10:12:44;;;;;;;2.08;1.10;;;;;;;32.22;31.84;101147.31;5037952;28;20041;-62
2023/07/22 10:15:12;;;;;;;2.17;1.30;;;;;;;32.79;31.96;101148.34;5054204;28;20128;-62
2023/07/22 10:17:38;;;;;;;1.55;1.45;;;;;;;33.16;30.96;101147.44;5037214;28;20048;-62
2023/07/22 10:20:07;;;;;;;2.95;1.38;;;;;;;33.81;29.97;101138.53;5053789;28;20511;-62
2023/07/22 10:22:37;;;;;;;2.97;1.50;;;;;;;34.08;30.85;101138.31;5055262;28;20072;-62
2023/07/22 10:25:06;;;;;;;1.08;0.90;;;;;;;34.24;29.49;101140.81;5053742;28;20029;-62
2023/07/22 10:27:32;;;;;;;2.85;1.20;;;;;;;34.37;30.22;101133.84;5053714;28;20025;-63
2023/07/22 10:29:59;;;;;;;2.35;1.20;;;;;;;34.57;29.64;101131.06;5054703;28;20488;-62
2023/07/22 10:32:24;;;;;;;3.45;1.00;;;;;;;34.68;28.96;101135.50;5053401;28;20037;-63
2023/07/22 10:34:50;;;;;;;2.55;1.35;;;;;;;34.62;29.40;101122.69;5053488;28;20508;-62
2023/07/22 10:37:18;;;;;;;3.22;1.27;;;;;;;34.53;29.30;101127.16;5054729;28;20043;-62
2023/07/22 10:39:43;;;;;;;2.30;1.40;;;;;;;34.80;28.18;101119.34;5053525;28;20029;-62
2023/07/22 10:42:09;;;;;;;1.20;0.80;;;;;;;35.05;28.23;101127.59;5053313;28;20558;-62
2023/07/22 10:44:38;;;;;;;2.83;1.00;;;;;;;35.24;28.45;101118.63;5053322;28;20049;-62
2023/07/22 10:47:04;;;;;;;3.10;1.38;;;;;;;35.23;28.37;101111.41;5054398;28;20029;-62
2023/07/22 10:49:45;;;;;;;1.88;1.05;;;;;;;35.15;28.35;101103.66;5054529;28;20029;-62
2023/07/22 10:52:14;;;;;;;1.70;1.60;;;;;;;35.68;27.61;101113.16;5052960;28;20041;-62
2023/07/22 10:54:40;;;;;;;1.80;1.35;;;;;;;35.90;27.08;101097.66;5053437;28;20543;-62
2023/07/22 10:57:15;;;;;;;1.90;1.50;;;;;;;35.99;26.67;101107.03;5054074;28;20025;-62
2023/07/22 10:59:48;;;;;;;2.20;1.17;;;;;;;36.08;26.85;101104.50;5054486;28;20036;-63
2023/07/22 11:02:24;;;;;;;7.32;1.83;;;;;;;36.30;26.27;101106.78;5053149;28;20029;-62
2023/07/22 11:04:49;;;;;;;3.70;1.25;;;;;;;36.27;26.92;101104.63;5036669;28;20029;-61
2023/07/22 11:07:16;;;;;;;3.92;1.50;;;;;;;35.99;26.61;101103.41;5053226;28;20039;-63
2023/07/22 11:09:42;;;;;;;3.47;1.15;;;;;;;35.78;26.62;101101.91;5052890;28;20041;-61
2023/07/22 11:12:10;;;;;;;1.52;1.42;;;;;;;35.97;25.98;101100.91;5054204;28;20056;-62
2023/07/22 11:14:49;;;;;;;2.05;1.10;;;;;;;36.52;25.55;101090.41;5053264;28;20067;-62
2023/07/22 11:17:15;;;;;;;3.90;1.15;;;;;;;37.06;24.99;101096.53;5053074;28;20037;-61
2023/07/22 11:19:41;;;;;;;1.02;0.88;;;;;;;37.47;25.18;101090.44;5046526;28;20528;-62